createdAt,value
2022-09-13T00:00:59.603Z,6.80
2022-09-13T00:03:27.062Z,4.72
2022-09-13T00:05:53.493Z,3.58
2022-09-13T00:08:20.327Z,4.45
2022-09-13T00:10:47.254Z,4.53
2022-09-13T00:13:15.181Z,4.40
2022-09-13T00:15:49.703Z,4.35
2022-09-13T00:18:17.471Z,5.65
2022-09-13T00:20:44.126Z,5.22
2022-09-13T00:23:11.376Z,4.20
2022-09-13T00:25:38.544Z,4.38
2022-09-13T00:28:05.693Z,5.85
2022-09-13T00:30:32.207Z,4.20
2022-09-13T00:32:59.059Z,4.10
2022-09-13T00:35:25.503Z,4.32
2022-09-13T00:37:52.124Z,4.88
2022-09-13T00:40:18.709Z,4.50
2022-09-13T00:42:45.237Z,4.32
2022-09-13T00:45:11.600Z,5.38
2022-09-13T00:47:38.038Z,5.95
2022-09-13T00:50:25.981Z,5.20
2022-09-13T00:53:23.010Z,4.63
2022-09-13T00:56:00.236Z,5.53
2022-09-13T00:58:34.610Z,5.88
2022-09-13T01:01:03.424Z,6.60
2022-09-13T01:03:33.379Z,5.80
2022-09-13T01:06:13.310Z,5.03
2022-09-13T01:08:42.322Z,5.22
2022-09-13T01:11:20.758Z,6.97
2022-09-13T01:13:47.987Z,9.15
2022-09-13T01:16:14.536Z,5.80
2022-09-13T01:18:41.140Z,6.18
2022-09-13T01:21:39.088Z,5.40
2022-09-13T01:24:35.794Z,5.22
2022-09-13T01:27:26.932Z,5.82
2022-09-13T01:30:13.689Z,5.47
2022-09-13T01:32:46.238Z,5.85
2022-09-13T01:35:23.031Z,5.22
2022-09-13T01:38:01.376Z,8.63
2022-09-13T01:41:13.435Z,5.75
2022-09-13T01:43:49.087Z,5.43
2022-09-13T01:46:45.229Z,5.38
2022-09-13T01:49:53.380Z,5.15
2022-09-13T01:52:41.981Z,4.35
2022-09-13T01:55:17.578Z,6.28
2022-09-13T01:57:48.477Z,4.70
2022-09-13T02:00:17.763Z,7.53
2022-09-13T02:02:54.549Z,6.60
2022-09-13T02:05:37.738Z,5.70
2022-09-13T02:08:09.867Z,4.55
2022-09-13T02:10:42.518Z,8.60
2022-09-13T02:13:17.906Z,3.97
2022-09-13T02:15:47.935Z,6.50
2022-09-13T02:18:28.355Z,4.50
2022-09-13T02:21:06.348Z,4.90
2022-09-13T02:23:41.014Z,6.15
2022-09-13T02:26:10.875Z,4.97
2022-09-13T02:28:42.071Z,6.07
2022-09-13T02:31:10.281Z,4.78
2022-09-13T02:33:44.542Z,4.95
2022-09-13T02:36:19.818Z,6.03
2022-09-13T02:41:55.951Z,5.38
2022-09-13T02:44:22.308Z,4.88
2022-09-13T02:47:12.085Z,6.82
2022-09-13T02:50:01.932Z,5.10
2022-09-13T02:52:57.233Z,4.53
2022-09-13T02:55:49.767Z,4.35
2022-09-13T02:58:32.063Z,4.05
2022-09-13T03:00:58.529Z,4.45
2022-09-13T03:03:26.196Z,6.35
2022-09-13T03:05:53.635Z,4.10
2022-09-13T03:08:22.051Z,4.97
2022-09-13T03:11:00.239Z,4.30
2022-09-13T03:13:26.945Z,3.83
2022-09-13T03:16:30.552Z,5.07
2022-09-13T03:19:29.027Z,4.88
2022-09-13T03:22:10.054Z,7.38
2022-09-13T03:24:42.493Z,4.47
2022-09-13T03:27:23.667Z,5.88
2022-09-13T03:30:19.748Z,5.40
2022-09-13T03:32:51.951Z,8.70
2022-09-13T03:35:42.196Z,6.65
2022-09-13T03:38:17.797Z,5.95
2022-09-13T03:40:49.895Z,9.55
2022-09-13T03:43:22.362Z,6.32
2022-09-13T03:45:52.788Z,9.55
2022-09-13T03:48:20.511Z,9.57
2022-09-13T03:50:47.551Z,6.20
2022-09-13T03:53:19.946Z,6.82
2022-09-13T03:55:46.431Z,6.18
2022-09-13T03:58:15.279Z,6.47
2022-09-13T04:00:41.641Z,5.75
2022-09-13T04:03:09.122Z,6.72
2022-09-13T04:05:35.601Z,7.13
2022-09-13T04:08:05.018Z,7.22
2022-09-13T04:10:32.712Z,6.50
2022-09-13T04:13:02.187Z,9.52
2022-09-13T04:15:32.071Z,6.32
2022-09-13T04:17:58.559Z,6.72
2022-09-13T04:20:25.710Z,6.93
2022-09-13T04:22:56.017Z,7.57
2022-09-13T04:25:23.357Z,6.22
2022-09-13T04:27:55.024Z,6.55
2022-09-13T04:30:22.172Z,7.70
2022-09-13T04:32:48.659Z,6.70
2022-09-13T04:35:19.512Z,6.50
2022-09-13T04:37:46.123Z,7.72
2022-09-13T04:40:13.649Z,5.63
2022-09-13T04:42:40.171Z,6.43
2022-09-13T04:45:06.926Z,4.68
2022-09-13T04:47:33.390Z,4.93
2022-09-13T04:49:59.748Z,5.38
2022-09-13T04:52:26.218Z,6.22
2022-09-13T04:54:52.546Z,7.40
2022-09-13T04:57:19.002Z,7.53
2022-09-13T04:59:45.303Z,4.75
2022-09-13T05:02:11.683Z,5.00
2022-09-13T05:04:38.417Z,6.25
2022-09-13T05:07:04.923Z,5.55
2022-09-13T05:09:31.313Z,6.20
2022-09-13T05:11:57.649Z,8.68
2022-09-13T05:14:23.981Z,5.97
2022-09-13T05:16:50.316Z,6.93
2022-09-13T05:19:16.730Z,6.22
2022-09-13T05:21:43.122Z,7.10
2022-09-13T05:24:09.564Z,11.82
2022-09-13T05:26:36.172Z,9.88
2022-09-13T05:29:02.549Z,7.60
2022-09-13T05:31:34.529Z,6.00
2022-09-13T05:34:03.414Z,8.15
2022-09-13T05:36:30.051Z,6.30
2022-09-13T05:39:12.587Z,5.90
2022-09-13T05:41:44.936Z,5.75
2022-09-13T05:44:13.626Z,5.75
2022-09-13T05:46:40.911Z,6.95
2022-09-13T05:49:07.267Z,5.53
2022-09-13T05:51:33.651Z,7.13
2022-09-13T05:54:00.121Z,7.40
2022-09-13T05:56:29.346Z,6.50
2022-09-13T05:58:56.373Z,9.85
2022-09-13T06:01:25.563Z,7.18
2022-09-13T06:03:54.071Z,5.10
2022-09-13T06:06:21.642Z,5.03
2022-09-13T06:08:48.437Z,7.35
2022-09-13T06:11:15.340Z,6.68
2022-09-13T06:13:43.222Z,4.68
2022-09-13T06:16:12.140Z,5.35
2022-09-13T06:18:39.422Z,5.22
2022-09-13T06:21:08.731Z,4.35
2022-09-13T06:23:35.292Z,5.22
2022-09-13T06:26:07.142Z,5.28
2022-09-13T06:28:37.288Z,5.00
2022-09-13T06:31:09.889Z,4.75
2022-09-13T06:33:38.138Z,4.88
2022-09-13T06:36:07.483Z,3.83
2022-09-13T06:38:34.209Z,4.78
2022-09-13T06:41:02.613Z,4.97
2022-09-13T06:43:28.935Z,7.93
2022-09-13T06:46:03.246Z,8.45
2022-09-13T06:48:35.199Z,4.78
2022-09-13T06:51:03.106Z,6.60
2022-09-13T06:53:30.326Z,5.05
2022-09-13T06:56:01.413Z,6.57
2022-09-13T06:58:30.281Z,7.65
2022-09-13T07:01:13.098Z,5.63
2022-09-13T07:03:42.183Z,5.82
2022-09-13T07:06:22.899Z,7.65
2022-09-13T07:08:51.470Z,5.00
2022-09-13T07:11:19.882Z,6.55
2022-09-13T07:13:54.609Z,4.80
2022-09-13T07:16:24.767Z,5.70
2022-09-13T07:18:53.330Z,5.18
2022-09-13T07:21:20.546Z,4.22
2022-09-13T07:23:46.903Z,3.92
2022-09-13T07:26:13.607Z,7.88
2022-09-13T07:28:45.219Z,4.63
2022-09-13T07:31:16.235Z,3.60
2022-09-13T07:33:43.977Z,6.55
2022-09-13T07:36:11.967Z,3.38
2022-09-13T07:38:41.201Z,8.43
2022-09-13T07:41:11.310Z,4.47
2022-09-13T07:43:38.101Z,5.68
2022-09-13T07:46:10.303Z,4.55
2022-09-13T07:48:39.216Z,3.47
2022-09-13T07:51:08.639Z,3.85
2022-09-13T07:53:36.570Z,5.75
2022-09-13T07:56:17.530Z,4.28
2022-09-13T07:58:45.919Z,5.63
2022-09-13T08:01:40.556Z,7.05
2022-09-13T08:04:12.629Z,7.80
2022-09-13T08:06:40.565Z,4.20
2022-09-13T08:09:08.705Z,4.07
2022-09-13T08:11:38.337Z,5.30
2022-09-13T08:14:07.105Z,4.40
2022-09-13T08:16:34.512Z,3.70
2022-09-13T08:19:04.249Z,3.65
2022-09-13T08:21:37.300Z,2.95
2022-09-13T08:24:05.652Z,3.88
2022-09-13T08:26:34.161Z,3.10
2022-09-13T08:29:02.296Z,4.50
2022-09-13T08:31:29.676Z,3.08
2022-09-13T08:33:57.603Z,2.65
2022-09-13T08:36:28.083Z,10.30
2022-09-13T08:38:58.780Z,3.60
2022-09-13T08:41:40.193Z,2.55
2022-09-13T08:44:30.075Z,2.67
2022-09-13T08:47:26.043Z,5.13
2022-09-13T08:50:09.161Z,3.88
2022-09-13T08:52:59.610Z,3.60
2022-09-13T08:55:51.096Z,8.52
2022-09-13T08:58:42.507Z,6.57
2022-09-13T09:01:17.143Z,3.97
2022-09-13T09:04:21.357Z,3.15
2022-09-13T09:06:47.913Z,4.20
2022-09-13T09:09:21.445Z,2.90
2022-09-13T09:11:47.761Z,3.15
2022-09-13T09:14:29.834Z,3.45
2022-09-13T09:17:03.984Z,3.17
2022-09-13T09:19:37.784Z,4.20
2022-09-13T09:22:11.164Z,3.45
2022-09-13T09:24:40.654Z,3.38
2022-09-13T09:27:16.612Z,3.17
2022-09-13T09:29:44.536Z,3.22
2022-09-13T09:32:36.168Z,5.95
2022-09-13T09:35:02.457Z,5.28
2022-09-13T09:37:30.603Z,4.10
2022-09-13T09:40:03.974Z,3.05
2022-09-13T09:42:40.734Z,3.92
2022-09-13T09:45:23.679Z,2.67
2022-09-13T09:47:51.595Z,2.45
2022-09-13T09:50:22.568Z,6.05
2022-09-13T09:53:26.942Z,2.72
2022-09-13T09:56:05.392Z,3.05
2022-09-13T09:58:43.346Z,3.28
2022-09-13T10:01:25.348Z,3.00
2022-09-13T10:04:01.281Z,2.38
2022-09-13T10:06:30.013Z,2.45
2022-09-13T10:08:59.920Z,4.18
2022-09-13T10:11:45.240Z,3.45
2022-09-13T10:17:05.176Z,2.00
2022-09-13T10:19:32.655Z,2.70
2022-09-13T10:22:05.830Z,4.85
2022-09-13T10:24:33.190Z,1.95
2022-09-13T10:27:00.094Z,2.47
2022-09-13T10:29:28.519Z,2.67
2022-09-13T10:32:03.537Z,3.28
2022-09-13T10:34:32.882Z,3.38
2022-09-13T10:37:04.263Z,2.58
2022-09-13T10:39:36.159Z,2.60
2022-09-13T10:42:06.597Z,3.67
2022-09-13T10:44:46.782Z,1.58
2022-09-13T10:47:27.350Z,2.03
2022-09-13T10:49:55.743Z,2.47
2022-09-13T10:52:44.656Z,2.72
2022-09-13T10:55:20.122Z,2.17
2022-09-13T10:57:48.018Z,2.90
2022-09-13T11:00:17.644Z,4.93
2022-09-13T11:02:59.801Z,2.47
2022-09-13T11:05:37.296Z,3.08
2022-09-13T11:08:11.304Z,2.53
2022-09-13T11:10:56.563Z,3.23
2022-09-13T11:13:34.123Z,4.47
2022-09-13T11:16:23.803Z,3.92
2022-09-13T11:18:51.326Z,5.20
2022-09-13T11:21:23.607Z,2.05
2022-09-13T11:23:56.252Z,2.30
2022-09-13T11:26:39.076Z,3.13
2022-09-13T11:29:08.686Z,2.65
2022-09-13T11:31:53.887Z,3.85
2022-09-13T11:37:28.432Z,4.03
2022-09-13T11:40:21.160Z,7.45
2022-09-13T11:43:22.765Z,3.45
2022-09-13T11:46:02.463Z,3.17
2022-09-13T11:49:03.113Z,4.97
2022-09-13T11:51:58.669Z,3.90
2022-09-13T11:57:31.286Z,3.42
2022-09-13T12:00:02.478Z,2.55
2022-09-13T12:02:45.186Z,4.25
2022-09-13T12:05:23.405Z,2.10
2022-09-13T12:07:59.650Z,4.72
2022-09-13T12:10:32.793Z,3.25
2022-09-13T12:13:02.288Z,2.42
2022-09-13T12:15:39.843Z,2.95
2022-09-13T12:18:22.592Z,1.90
2022-09-13T12:20:54.910Z,2.38
2022-09-13T12:23:31.427Z,4.50
2022-09-13T12:26:03.703Z,2.58
2022-09-13T12:28:55.975Z,4.47
2022-09-13T12:31:25.754Z,1.88
2022-09-13T12:33:53.387Z,2.42
2022-09-13T12:36:38.083Z,2.45
2022-09-13T12:39:31.592Z,3.80
2022-09-13T12:42:03.703Z,4.35
2022-09-13T12:45:08.830Z,5.35
2022-09-13T12:47:50.591Z,3.43
2022-09-13T12:50:48.193Z,3.63
2022-09-13T12:53:45.126Z,3.70
2022-09-13T12:56:40.866Z,3.08
2022-09-13T12:59:21.034Z,2.40
2022-09-13T13:01:50.284Z,3.67
2022-09-13T13:04:28.783Z,3.22
2022-09-13T13:07:08.322Z,4.88
2022-09-13T13:09:47.854Z,4.35
2022-09-13T13:12:36.627Z,3.65
2022-09-13T13:15:12.211Z,2.17
2022-09-13T13:17:38.745Z,3.03
2022-09-13T13:20:42.820Z,2.47
2022-09-13T13:23:34.461Z,2.78
2022-09-13T13:26:05.505Z,2.47
2022-09-13T13:28:51.989Z,2.25
2022-09-13T13:31:24.843Z,3.33
2022-09-13T13:34:00.946Z,2.88
2022-09-13T13:36:30.115Z,2.58
2022-09-13T13:38:57.175Z,2.95
2022-09-13T13:41:38.322Z,2.67
2022-09-13T13:44:17.852Z,3.72
2022-09-13T13:46:45.010Z,2.50
2022-09-13T13:49:30.128Z,2.08
2022-09-13T13:52:08.746Z,2.72
2022-09-13T13:55:02.596Z,2.33
2022-09-13T13:57:31.786Z,4.03
2022-09-13T14:00:04.518Z,2.45
2022-09-13T14:02:39.610Z,3.15
2022-09-13T14:05:14.316Z,2.58
2022-09-13T14:07:58.023Z,3.20
2022-09-13T14:11:00.066Z,9.27
2022-09-13T14:13:35.081Z,3.78
2022-09-13T14:16:36.862Z,3.70
2022-09-13T14:19:25.455Z,2.83
2022-09-13T14:22:21.227Z,4.20
2022-09-13T14:24:50.308Z,2.40
2022-09-13T14:27:25.809Z,3.65
2022-09-13T14:29:56.091Z,5.63
2022-09-13T14:32:25.420Z,3.08
2022-09-13T14:34:59.252Z,5.78
2022-09-13T14:37:31.378Z,4.93
2022-09-13T14:40:00.860Z,4.75
2022-09-13T14:42:41.325Z,2.45
2022-09-13T14:45:14.809Z,4.13
2022-09-13T14:47:53.794Z,3.90
2022-09-13T14:50:26.346Z,4.57
2022-09-13T14:53:07.561Z,3.17
2022-09-13T14:55:43.513Z,7.18
2022-09-13T14:58:24.516Z,3.10
2022-09-13T15:01:01.183Z,3.40
2022-09-13T15:03:28.034Z,3.65
2022-09-13T15:05:58.021Z,2.20
2022-09-13T15:08:33.551Z,2.08
2022-09-13T15:11:02.000Z,3.55
2022-09-13T15:13:29.287Z,3.47
2022-09-13T15:15:56.091Z,4.40
2022-09-13T15:18:36.528Z,6.75
2022-09-13T15:21:16.783Z,2.65
2022-09-13T15:23:50.214Z,5.80
2022-09-13T15:26:21.251Z,2.97
2022-09-13T15:28:53.718Z,4.32
2022-09-13T15:31:31.651Z,4.25
2022-09-13T15:34:17.430Z,3.75
2022-09-13T15:36:45.945Z,3.58
2022-09-13T15:39:18.148Z,2.78
2022-09-13T15:41:52.370Z,4.20
2022-09-13T15:44:19.205Z,6.50
2022-09-13T15:46:52.800Z,12.88
2022-09-13T15:49:22.561Z,3.42
2022-09-13T15:51:54.910Z,4.35
2022-09-13T15:54:25.227Z,3.13
2022-09-13T15:56:51.790Z,4.15
2022-09-13T15:59:20.457Z,4.95
2022-09-13T16:01:51.653Z,6.20
2022-09-13T16:04:19.183Z,4.57
2022-09-13T16:06:45.910Z,2.15
2022-09-13T16:09:19.911Z,6.45
2022-09-13T16:11:48.078Z,2.30
2022-09-13T16:14:15.663Z,3.47
2022-09-13T16:16:42.123Z,4.20
2022-09-13T16:19:20.594Z,4.18
2022-09-13T16:21:48.023Z,2.13
2022-09-13T16:24:14.844Z,3.45
2022-09-13T16:26:41.850Z,5.38
2022-09-13T16:29:09.975Z,3.30
2022-09-13T16:31:36.566Z,3.53
2022-09-13T16:34:03.187Z,4.20
2022-09-13T16:36:29.612Z,4.50
2022-09-13T16:38:56.752Z,3.67
2022-09-13T16:41:23.652Z,2.20
2022-09-13T16:43:50.132Z,6.50
2022-09-13T16:46:17.975Z,2.80
2022-09-13T16:48:44.470Z,3.88
2022-09-13T16:51:12.658Z,3.45
2022-09-13T16:53:41.614Z,9.07
2022-09-13T16:56:14.366Z,3.90
2022-09-13T16:58:43.454Z,3.50
2022-09-13T17:01:11.544Z,7.63
2022-09-13T17:03:38.557Z,4.43
2022-09-13T17:06:07.993Z,4.78
2022-09-13T17:08:36.246Z,5.10
2022-09-13T17:11:12.126Z,5.60
2022-09-13T17:13:39.872Z,4.38
2022-09-13T17:16:08.323Z,2.55
2022-09-13T17:18:34.901Z,3.47
2022-09-13T17:21:01.259Z,2.47
2022-09-13T17:23:28.259Z,3.47
2022-09-13T17:25:54.719Z,4.40
2022-09-13T17:28:21.554Z,3.00
2022-09-13T17:30:48.130Z,3.67
2022-09-13T17:33:14.605Z,3.97
2022-09-13T17:35:43.468Z,12.90
2022-09-13T17:38:09.892Z,13.02
2022-09-13T17:40:36.253Z,4.90
2022-09-13T17:43:03.472Z,3.85
2022-09-13T17:45:29.953Z,4.45
2022-09-13T17:47:59.240Z,4.65
2022-09-13T17:50:25.761Z,4.90
2022-09-13T17:52:52.278Z,3.00
2022-09-13T17:55:18.991Z,4.05
2022-09-13T17:57:49.640Z,3.42
2022-09-13T18:00:16.739Z,3.65
2022-09-13T18:02:46.876Z,5.20
2022-09-13T18:05:13.990Z,5.07
2022-09-13T18:07:40.478Z,3.25
2022-09-13T18:10:20.240Z,4.10
2022-09-13T18:12:52.182Z,3.40
2022-09-13T18:15:18.769Z,5.07
2022-09-13T18:17:45.124Z,4.75
2022-09-13T18:20:11.636Z,3.53
2022-09-13T18:22:38.864Z,5.80
2022-09-13T18:25:05.756Z,4.63
2022-09-13T18:27:33.290Z,5.72
2022-09-13T18:30:01.016Z,3.35
2022-09-13T18:32:27.565Z,4.07
2022-09-13T18:34:54.189Z,3.53
2022-09-13T18:37:20.812Z,4.35
2022-09-13T18:39:47.293Z,4.43
2022-09-13T18:42:13.761Z,4.05
2022-09-13T18:44:40.420Z,4.32
2022-09-13T18:47:08.681Z,4.32
2022-09-13T18:49:35.100Z,5.03
2022-09-13T18:52:01.970Z,5.93
2022-09-13T18:54:28.327Z,4.43
2022-09-13T18:56:55.497Z,10.93
2022-09-13T18:59:22.176Z,9.35
2022-09-13T19:01:48.948Z,6.88
2022-09-13T19:04:20.836Z,4.75
2022-09-13T19:06:49.641Z,5.35
2022-09-13T19:09:19.866Z,7.10
2022-09-13T19:11:49.065Z,6.43
2022-09-13T19:14:24.634Z,12.38
2022-09-13T19:16:52.753Z,4.90
2022-09-13T19:19:19.395Z,5.35
2022-09-13T19:21:46.073Z,7.80
2022-09-13T19:24:18.018Z,5.90
2022-09-13T19:26:46.843Z,6.13
2022-09-13T19:29:15.452Z,4.22
2022-09-13T19:31:47.446Z,4.60
2022-09-13T19:34:15.216Z,5.43
2022-09-13T19:36:43.071Z,4.68
2022-09-13T19:39:10.064Z,6.25
2022-09-13T19:41:37.974Z,5.90
2022-09-13T19:44:05.132Z,4.47
2022-09-13T19:46:34.886Z,6.95
2022-09-13T19:49:02.555Z,5.78
2022-09-13T19:51:34.565Z,8.95
2022-09-13T19:54:01.774Z,8.43
2022-09-13T19:56:32.053Z,4.20
2022-09-13T19:58:59.348Z,4.13
2022-09-13T20:01:29.101Z,6.97
2022-09-13T20:04:00.679Z,6.10
2022-09-13T20:06:29.098Z,6.85
2022-09-13T20:08:59.939Z,5.00
2022-09-13T20:11:28.380Z,5.70
2022-09-13T20:13:55.906Z,7.20
2022-09-13T20:16:26.090Z,7.55
2022-09-13T20:18:52.829Z,6.10
2022-09-13T20:21:19.723Z,8.52
2022-09-13T20:23:46.926Z,5.90
2022-09-13T20:26:16.820Z,9.38
2022-09-13T20:28:43.553Z,6.85
2022-09-13T20:31:10.327Z,7.32
2022-09-13T20:33:38.942Z,6.57
2022-09-13T20:36:10.937Z,5.95
2022-09-13T20:38:38.373Z,6.10
2022-09-13T20:41:10.507Z,6.75
2022-09-13T20:43:37.467Z,10.40
2022-09-13T20:46:05.476Z,6.10
2022-09-13T20:48:33.291Z,8.15
2022-09-13T20:51:20.780Z,7.72
2022-09-13T20:53:47.259Z,9.00
2022-09-13T20:56:18.437Z,6.32
2022-09-13T20:58:45.887Z,7.40
2022-09-13T21:01:19.980Z,5.57
2022-09-13T21:03:49.167Z,8.60
2022-09-13T21:06:16.885Z,7.22
2022-09-13T21:08:44.026Z,7.53
2022-09-13T21:11:22.083Z,5.90
2022-09-13T21:14:01.497Z,7.88
2022-09-13T21:16:34.517Z,8.13
2022-09-13T21:19:01.412Z,6.82
2022-09-13T21:21:39.815Z,10.80
2022-09-13T21:24:09.732Z,6.57
2022-09-13T21:26:39.571Z,5.63
2022-09-13T21:29:06.595Z,7.45
2022-09-13T21:31:33.512Z,8.57
2022-09-13T21:34:04.061Z,7.45
2022-09-13T21:36:32.394Z,5.57
2022-09-13T21:38:58.966Z,6.30
2022-09-13T21:41:26.770Z,6.45
2022-09-13T21:43:54.448Z,6.43
2022-09-13T21:46:26.502Z,7.43
2022-09-13T21:48:58.421Z,8.32
2022-09-13T21:51:33.985Z,6.07
2022-09-13T21:54:02.450Z,6.32
2022-09-13T21:56:30.823Z,6.55
2022-09-13T21:59:00.135Z,5.80
2022-09-13T22:01:29.961Z,5.60
2022-09-13T22:03:57.230Z,5.82
2022-09-13T22:06:24.310Z,4.95
2022-09-13T22:08:52.929Z,6.82
2022-09-13T22:11:31.374Z,7.03
2022-09-13T22:13:59.057Z,5.63
2022-09-13T22:16:26.619Z,6.57
2022-09-13T22:18:55.530Z,4.93
2022-09-13T22:21:25.069Z,7.90
2022-09-13T22:23:52.314Z,8.07
2022-09-13T22:26:22.483Z,8.98
2022-09-13T22:28:49.885Z,6.72
2022-09-13T22:31:22.281Z,6.93
2022-09-13T22:33:49.399Z,7.30
2022-09-13T22:36:17.522Z,5.53
2022-09-13T22:38:48.151Z,9.52
2022-09-13T22:41:22.672Z,8.90
2022-09-13T22:43:49.540Z,8.07
2022-09-13T22:46:21.016Z,9.43
2022-09-13T22:48:48.367Z,8.52
2022-09-13T22:51:17.697Z,10.15
2022-09-13T22:53:46.429Z,8.38
2022-09-13T22:56:25.033Z,12.00
2022-09-13T22:58:56.658Z,9.77
2022-09-13T23:01:24.910Z,9.32
2022-09-13T23:03:52.504Z,11.27
2022-09-13T23:06:20.976Z,12.55
2022-09-13T23:08:49.642Z,10.50
2022-09-13T23:11:19.444Z,12.90
2022-09-13T23:13:47.786Z,16.42
2022-09-13T23:16:17.745Z,13.15
2022-09-13T23:18:44.528Z,10.23
2022-09-13T23:21:11.111Z,11.27
2022-09-13T23:23:37.900Z,13.65
2022-09-13T23:26:14.206Z,11.20
2022-09-13T23:28:41.150Z,11.57
2022-09-13T23:31:11.607Z,14.80
2022-09-13T23:33:42.757Z,13.57
2022-09-13T23:36:11.231Z,11.43
2022-09-13T23:38:38.210Z,13.70
2022-09-13T23:41:04.846Z,15.07
2022-09-13T23:43:31.345Z,14.10
2022-09-13T23:45:57.878Z,16.92
2022-09-13T23:48:25.094Z,12.38
2022-09-13T23:50:59.330Z,15.70
2022-09-13T23:53:26.296Z,11.90
2022-09-13T23:55:52.841Z,13.10
2022-09-13T23:58:19.230Z,16.83
